sensor_id;sensor_type;location;lat;lon;timestamp;temperature;humidity
18950;DHT22;9608;49.288;8.130;2024-03-23T00:54:24;11.60;99.90
18950;DHT22;9608;49.288;8.130;2024-03-23T00:56:50;11.60;99.90
18950;DHT22;9608;49.288;8.130;2024-03-23T00:59:16;11.60;99.90
18950;DHT22;9608;49.288;8.130;2024-03-23T01:01:42;11.60;99.90
18950;DHT22;9608;49.288;8.130;2024-03-23T01:04:09;11.70;99.90
18950;DHT22;9608;49.288;8.130;2024-03-23T01:06:35;11.60;99.90
18950;DHT22;9608;49.288;8.130;2024-03-23T01:09:01;11.60;99.90
18950;DHT22;9608;49.288;8.130;2024-03-23T01:11:28;11.60;99.90
18950;DHT22;9608;49.288;8.130;2024-03-23T01:13:55;11.60;99.90
18950;DHT22;9608;49.288;8.130;2024-03-23T01:16:21;11.70;99.90
18950;DHT22;9608;49.288;8.130;2024-03-23T01:18:48;11.80;99.90
18950;DHT22;9608;49.288;8.130;2024-03-23T01:21:14;11.90;99.90
18950;DHT22;9608;49.288;8.130;2024-03-23T01:23:40;12.00;99.90
18950;DHT22;9608;49.288;8.130;2024-03-23T01:26:06;12.10;99.90
18950;DHT22;9608;49.288;8.130;2024-03-23T01:28:34;12.20;99.90
18950;DHT22;9608;49.288;8.130;2024-03-23T01:31:00;12.30;99.90
18950;DHT22;9608;49.288;8.130;2024-03-23T01:33:27;12.30;99.90
18950;DHT22;9608;49.288;8.130;2024-03-23T01:35:53;12.40;99.90
18950;DHT22;9608;49.288;8.130;2024-03-23T01:38:19;12.50;99.90
18950;DHT22;9608;49.288;8.130;2024-03-23T01:40:45;12.70;99.90
18950;DHT22;9608;49.288;8.130;2024-03-23T01:43:12;12.80;99.90
18950;DHT22;9608;49.288;8.130;2024-03-23T01:45:39;13.00;99.90
18950;DHT22;9608;49.288;8.130;2024-03-23T01:48:07;13.00;99.90
18950;DHT22;9608;49.288;8.130;2024-03-23T01:50:33;13.10;99.90
18950;DHT22;9608;49.288;8.130;2024-03-23T01:53:00;13.20;99.90
18950;DHT22;9608;49.288;8.130;2024-03-23T01:55:27;13.20;99.90
18950;DHT22;9608;49.288;8.130;2024-03-23T01:57:56;13.30;99.90
18950;DHT22;9608;49.288;8.130;2024-03-23T02:00:22;13.50;99.90
18950;DHT22;9608;49.288;8.130;2024-03-23T02:02:52;13.50;99.90
18950;DHT22;9608;49.288;8.130;2024-03-23T02:05:18;13.50;99.90
18950;DHT22;9608;49.288;8.130;2024-03-23T02:07:45;13.50;99.90
18950;DHT22;9608;49.288;8.130;2024-03-23T02:10:11;13.50;99.90
18950;DHT22;9608;49.288;8.130;2024-03-23T02:12:39;13.50;99.90
18950;DHT22;9608;49.288;8.130;2024-03-23T02:15:05;13.40;99.90
18950;DHT22;9608;49.288;8.130;2024-03-23T02:17:33;13.40;99.90
18950;DHT22;9608;49.288;8.130;2024-03-23T02:20:01;13.50;99.90
18950;DHT22;9608;49.288;8.130;2024-03-23T02:22:35;13.40;99.90
18950;DHT22;9608;49.288;8.130;2024-03-23T02:25:03;13.40;99.90
18950;DHT22;9608;49.288;8.130;2024-03-23T02:27:30;13.30;99.90
18950;DHT22;9608;49.288;8.130;2024-03-23T02:29:55;13.20;99.90
18950;DHT22;9608;49.288;8.130;2024-03-23T02:32:22;13.30;99.90
18950;DHT22;9608;49.288;8.130;2024-03-23T02:34:48;13.30;99.90
18950;DHT22;9608;49.288;8.130;2024-03-23T02:37:15;13.30;99.90
18950;DHT22;9608;49.288;8.130;2024-03-23T02:39:40;13.20;99.90
18950;DHT22;9608;49.288;8.130;2024-03-23T02:42:08;13.10;99.90
18950;DHT22;9608;49.288;8.130;2024-03-23T02:44:34;13.00;99.90
18950;DHT22;9608;49.288;8.130;2024-03-23T02:47:01;12.90;99.90
18950;DHT22;9608;49.288;8.130;2024-03-23T02:49:27;12.90;99.90
18950;DHT22;9608;49.288;8.130;2024-03-23T02:51:53;12.80;99.90
18950;DHT22;9608;49.288;8.130;2024-03-23T02:54:19;12.80;99.90
18950;DHT22;9608;49.288;8.130;2024-03-23T02:56:46;12.70;99.90
18950;DHT22;9608;49.288;8.130;2024-03-23T02:59:13;12.80;99.90
18950;DHT22;9608;49.288;8.130;2024-03-23T03:01:40;12.70;99.90
18950;DHT22;9608;49.288;8.130;2024-03-23T03:04:06;12.60;99.90
18950;DHT22;9608;49.288;8.130;2024-03-23T03:06:32;12.60;99.90
18950;DHT22;9608;49.288;8.130;2024-03-23T03:08:58;12.50;99.90
18950;DHT22;9608;49.288;8.130;2024-03-23T03:11:25;12.40;99.90
18950;DHT22;9608;49.288;8.130;2024-03-23T03:13:51;12.50;99.90
18950;DHT22;9608;49.288;8.130;2024-03-23T03:16:19;12.40;99.90
18950;DHT22;9608;49.288;8.130;2024-03-23T03:18:44;12.30;99.90
18950;DHT22;9608;49.288;8.130;2024-03-23T03:21:12;12.20;99.90
18950;DHT22;9608;49.288;8.130;2024-03-23T03:23:38;12.20;99.90
18950;DHT22;9608;49.288;8.130;2024-03-23T03:26:05;12.30;99.90
18950;DHT22;9608;49.288;8.130;2024-03-23T03:28:31;12.30;99.90
18950;DHT22;9608;49.288;8.130;2024-03-23T03:30:58;12.30;99.90
18950;DHT22;9608;49.288;8.130;2024-03-23T03:33:26;12.30;99.90
18950;DHT22;9608;49.288;8.130;2024-03-23T03:35:55;12.20;99.90
18950;DHT22;9608;49.288;8.130;2024-03-23T03:38:21;12.20;99.90
18950;DHT22;9608;49.288;8.130;2024-03-23T03:40:48;12.20;99.90
18950;DHT22;9608;49.288;8.130;2024-03-23T03:43:13;12.20;99.90
18950;DHT22;9608;49.288;8.130;2024-03-23T03:45:40;12.20;99.90
18950;DHT22;9608;49.288;8.130;2024-03-23T03:48:06;12.20;99.90
18950;DHT22;9608;49.288;8.130;2024-03-23T03:50:34;12.20;99.90
18950;DHT22;9608;49.288;8.130;2024-03-23T03:53:00;12.10;99.90
18950;DHT22;9608;49.288;8.130;2024-03-23T03:55:27;12.20;99.90
18950;DHT22;9608;49.288;8.130;2024-03-23T03:57:53;12.20;99.90
18950;DHT22;9608;49.288;8.130;2024-03-23T04:00:20;12.20;99.90
18950;DHT22;9608;49.288;8.130;2024-03-23T04:02:45;12.10;99.90
18950;DHT22;9608;49.288;8.130;2024-03-23T04:05:12;12.10;99.90
18950;DHT22;9608;49.288;8.130;2024-03-23T04:07:39;12.10;99.90
18950;DHT22;9608;49.288;8.130;2024-03-23T04:10:07;12.00;99.90
18950;DHT22;9608;49.288;8.130;2024-03-23T04:12:33;11.90;99.90
18950;DHT22;9608;49.288;8.130;2024-03-23T04:15:00;11.90;99.90
18950;DHT22;9608;49.288;8.130;2024-03-23T04:17:27;12.00;99.90
18950;DHT22;9608;49.288;8.130;2024-03-23T04:19:57;11.80;99.90
18950;DHT22;9608;49.288;8.130;2024-03-23T04:22:23;11.90;99.90
18950;DHT22;9608;49.288;8.130;2024-03-23T04:24:52;11.80;99.90
18950;DHT22;9608;49.288;8.130;2024-03-23T04:27:18;11.80;99.90
18950;DHT22;9608;49.288;8.130;2024-03-23T04:29:47;11.80;99.90
18950;DHT22;9608;49.288;8.130;2024-03-23T04:32:13;11.70;99.90
18950;DHT22;9608;49.288;8.130;2024-03-23T04:34:40;11.60;99.90
18950;DHT22;9608;49.288;8.130;2024-03-23T04:37:06;11.50;99.90
18950;DHT22;9608;49.288;8.130;2024-03-23T04:39:32;11.50;99.90
18950;DHT22;9608;49.288;8.130;2024-03-23T04:42:00;11.40;99.90
18950;DHT22;9608;49.288;8.130;2024-03-23T04:44:28;11.40;99.90
18950;DHT22;9608;49.288;8.130;2024-03-23T04:46:54;11.30;99.90
18950;DHT22;9608;49.288;8.130;2024-03-23T04:49:21;11.30;99.90
18950;DHT22;9608;49.288;8.130;2024-03-23T04:51:48;11.30;99.90
18950;DHT22;9608;49.288;8.130;2024-03-23T04:54:15;11.20;99.90
18950;DHT22;9608;49.288;8.130;2024-03-23T04:56:41;11.10;99.90
18950;DHT22;9608;49.288;8.130;2024-03-23T04:59:10;11.00;99.90
18950;DHT22;9608;49.288;8.130;2024-03-23T05:01:36;10.90;99.90
18950;DHT22;9608;49.288;8.130;2024-03-23T05:04:04;10.80;99.90
18950;DHT22;9608;49.288;8.130;2024-03-23T05:06:30;10.80;99.90
18950;DHT22;9608;49.288;8.130;2024-03-23T05:08:57;10.80;99.90
18950;DHT22;9608;49.288;8.130;2024-03-23T05:11:23;10.80;99.90
18950;DHT22;9608;49.288;8.130;2024-03-23T05:13:49;10.70;99.90
18950;DHT22;9608;49.288;8.130;2024-03-23T05:16:16;10.60;99.90
18950;DHT22;9608;49.288;8.130;2024-03-23T05:18:43;10.60;99.90
18950;DHT22;9608;49.288;8.130;2024-03-23T05:21:09;10.50;99.90
18950;DHT22;9608;49.288;8.130;2024-03-23T05:23:36;10.40;99.90
18950;DHT22;9608;49.288;8.130;2024-03-23T05:26:03;10.20;99.90
18950;DHT22;9608;49.288;8.130;2024-03-23T05:28:30;10.10;99.90
18950;DHT22;9608;49.288;8.130;2024-03-23T05:30:56;10.10;99.90
18950;DHT22;9608;49.288;8.130;2024-03-23T05:33:25;10.00;99.90
18950;DHT22;9608;49.288;8.130;2024-03-23T05:35:56;10.00;99.90
18950;DHT22;9608;49.288;8.130;2024-03-23T05:38:23;9.80;99.90
18950;DHT22;9608;49.288;8.130;2024-03-23T05:40:53;9.80;99.90
18950;DHT22;9608;49.288;8.130;2024-03-23T05:43:20;9.70;99.90
18950;DHT22;9608;49.288;8.130;2024-03-23T05:45:46;9.50;99.90
18950;DHT22;9608;49.288;8.130;2024-03-23T05:48:12;9.40;99.90
18950;DHT22;9608;49.288;8.130;2024-03-23T05:50:40;9.40;99.90
18950;DHT22;9608;49.288;8.130;2024-03-23T05:53:06;9.30;99.90
18950;DHT22;9608;49.288;8.130;2024-03-23T05:55:33;9.30;99.90
18950;DHT22;9608;49.288;8.130;2024-03-23T05:58:00;9.20;99.90
18950;DHT22;9608;49.288;8.130;2024-03-23T06:00:25;9.20;99.90
18950;DHT22;9608;49.288;8.130;2024-03-23T06:02:52;9.20;99.90
18950;DHT22;9608;49.288;8.130;2024-03-23T06:05:18;9.10;99.90
18950;DHT22;9608;49.288;8.130;2024-03-23T06:07:46;9.10;99.90
18950;DHT22;9608;49.288;8.130;2024-03-23T06:10:12;9.10;99.90
18950;DHT22;9608;49.288;8.130;2024-03-23T06:12:38;9.00;99.90
18950;DHT22;9608;49.288;8.130;2024-03-23T06:15:06;9.00;99.90
18950;DHT22;9608;49.288;8.130;2024-03-23T06:17:35;9.00;99.90
18950;DHT22;9608;49.288;8.130;2024-03-23T06:20:03;8.90;99.90
18950;DHT22;9608;49.288;8.130;2024-03-23T06:22:29;8.90;99.90
18950;DHT22;9608;49.288;8.130;2024-03-23T06:24:58;8.80;99.90
18950;DHT22;9608;49.288;8.130;2024-03-23T06:27:23;8.80;99.90
18950;DHT22;9608;49.288;8.130;2024-03-23T06:29:50;8.70;99.90
18950;DHT22;9608;49.288;8.130;2024-03-23T06:32:17;8.60;99.90
18950;DHT22;9608;49.288;8.130;2024-03-23T06:34:42;8.50;99.90
18950;DHT22;9608;49.288;8.130;2024-03-23T06:37:10;8.40;99.90
18950;DHT22;9608;49.288;8.130;2024-03-23T06:39:35;8.40;99.90
18950;DHT22;9608;49.288;8.130;2024-03-23T06:42:04;8.40;99.90
18950;DHT22;9608;49.288;8.130;2024-03-23T06:44:30;8.40;99.90
18950;DHT22;9608;49.288;8.130;2024-03-23T06:46:57;8.40;99.90
18950;DHT22;9608;49.288;8.130;2024-03-23T06:49:23;8.40;99.90
18950;DHT22;9608;49.288;8.130;2024-03-23T06:51:50;8.40;99.90
18950;DHT22;9608;49.288;8.130;2024-03-23T06:54:16;8.40;99.90
18950;DHT22;9608;49.288;8.130;2024-03-23T06:56:44;8.40;99.90
18950;DHT22;9608;49.288;8.130;2024-03-23T06:59:11;8.50;99.90
18950;DHT22;9608;49.288;8.130;2024-03-23T07:01:38;8.50;99.90
18950;DHT22;9608;49.288;8.130;2024-03-23T07:04:04;8.50;99.90
18950;DHT22;9608;49.288;8.130;2024-03-23T07:06:31;8.50;99.90
18950;DHT22;9608;49.288;8.130;2024-03-23T07:08:57;8.60;99.90
18950;DHT22;9608;49.288;8.130;2024-03-23T07:11:24;8.60;99.90
18950;DHT22;9608;49.288;8.130;2024-03-23T07:13:50;8.70;99.90
18950;DHT22;9608;49.288;8.130;2024-03-23T07:16:18;8.80;99.90
18950;DHT22;9608;49.288;8.130;2024-03-23T07:18:44;8.80;99.90
18950;DHT22;9608;49.288;8.130;2024-03-23T07:21:11;8.80;99.90
18950;DHT22;9608;49.288;8.130;2024-03-23T07:23:36;8.90;99.90
18950;DHT22;9608;49.288;8.130;2024-03-23T07:26:04;9.00;99.90
18950;DHT22;9608;49.288;8.130;2024-03-23T07:28:30;9.10;99.90
18950;DHT22;9608;49.288;8.130;2024-03-23T07:31:02;9.10;99.90
18950;DHT22;9608;49.288;8.130;2024-03-23T07:33:30;9.20;99.90
18950;DHT22;9608;49.288;8.130;2024-03-23T07:35:57;9.40;99.90
18950;DHT22;9608;49.288;8.130;2024-03-23T07:38:23;9.50;99.90
18950;DHT22;9608;49.288;8.130;2024-03-23T07:40:50;9.60;99.90
18950;DHT22;9608;49.288;8.130;2024-03-23T07:43:21;9.50;99.90
18950;DHT22;9608;49.288;8.130;2024-03-23T07:45:51;9.60;99.90
18950;DHT22;9608;49.288;8.130;2024-03-23T07:48:18;9.60;99.90
18950;DHT22;9608;49.288;8.130;2024-03-23T07:50:45;9.60;99.90
18950;DHT22;9608;49.288;8.130;2024-03-23T07:53:12;9.50;99.90
18950;DHT22;9608;49.288;8.130;2024-03-23T07:55:38;9.30;99.90
18950;DHT22;9608;49.288;8.130;2024-03-23T07:58:07;9.30;99.90
18950;DHT22;9608;49.288;8.130;2024-03-23T08:00:33;9.40;99.90
18950;DHT22;9608;49.288;8.130;2024-03-23T08:03:00;9.50;99.90
18950;DHT22;9608;49.288;8.130;2024-03-23T08:05:26;9.60;99.90
18950;DHT22;9608;49.288;8.130;2024-03-23T08:07:54;9.80;99.90
18950;DHT22;9608;49.288;8.130;2024-03-23T08:10:20;10.10;99.90
18950;DHT22;9608;49.288;8.130;2024-03-23T08:12:46;10.40;99.90
18950;DHT22;9608;49.288;8.130;2024-03-23T08:15:12;10.50;99.90
18950;DHT22;9608;49.288;8.130;2024-03-23T08:17:39;10.70;99.90
18950;DHT22;9608;49.288;8.130;2024-03-23T08:20:06;10.70;99.90
18950;DHT22;9608;49.288;8.130;2024-03-23T08:22:33;10.70;99.90
18950;DHT22;9608;49.288;8.130;2024-03-23T08:25:00;10.70;99.90
18950;DHT22;9608;49.288;8.130;2024-03-23T08:27:27;10.60;99.90
18950;DHT22;9608;49.288;8.130;2024-03-23T08:29:53;10.70;99.90
18950;DHT22;9608;49.288;8.130;2024-03-23T08:32:20;10.60;99.90
18950;DHT22;9608;49.288;8.130;2024-03-23T08:34:46;10.70;99.90
18950;DHT22;9608;49.288;8.130;2024-03-23T08:37:12;10.80;99.90
18950;DHT22;9608;49.288;8.130;2024-03-23T08:39:38;10.80;99.90
18950;DHT22;9608;49.288;8.130;2024-03-23T08:42:06;11.20;99.90
18950;DHT22;9608;49.288;8.130;2024-03-23T08:44:32;11.40;99.90
18950;DHT22;9608;49.288;8.130;2024-03-23T08:46:59;11.50;99.90
18950;DHT22;9608;49.288;8.130;2024-03-23T08:49:24;11.30;99.90
18950;DHT22;9608;49.288;8.130;2024-03-23T08:51:51;11.10;99.90
18950;DHT22;9608;49.288;8.130;2024-03-23T08:54:17;10.90;99.90
18950;DHT22;9608;49.288;8.130;2024-03-23T08:56:45;10.50;99.90
18950;DHT22;9608;49.288;8.130;2024-03-23T08:59:12;10.50;99.90
18950;DHT22;9608;49.288;8.130;2024-03-23T09:01:39;10.90;99.90
18950;DHT22;9608;49.288;8.130;2024-03-23T09:04:05;11.30;99.90
18950;DHT22;9608;49.288;8.130;2024-03-23T09:06:31;11.40;99.90
18950;DHT22;9608;49.288;8.130;2024-03-23T09:08:57;11.60;99.90
18950;DHT22;9608;49.288;8.130;2024-03-23T09:11:24;11.60;99.90
18950;DHT22;9608;49.288;8.130;2024-03-23T09:13:50;11.50;99.90
18950;DHT22;9608;49.288;8.130;2024-03-23T09:16:18;11.40;99.90
18950;DHT22;9608;49.288;8.130;2024-03-23T09:18:43;11.50;99.90
18950;DHT22;9608;49.288;8.130;2024-03-23T09:21:11;11.70;99.90
18950;DHT22;9608;49.288;8.130;2024-03-23T09:23:38;11.90;99.90
18950;DHT22;9608;49.288;8.130;2024-03-23T09:26:05;12.00;99.90
18950;DHT22;9608;49.288;8.130;2024-03-23T09:28:32;12.00;99.90
18950;DHT22;9608;49.288;8.130;2024-03-23T09:31:02;11.90;99.90
18950;DHT22;9608;49.288;8.130;2024-03-23T09:33:29;11.50;99.90
18950;DHT22;9608;49.288;8.130;2024-03-23T09:35:56;11.50;99.90
18950;DHT22;9608;49.288;8.130;2024-03-23T09:38:22;11.20;99.90
18950;DHT22;9608;49.288;8.130;2024-03-23T09:40:51;11.20;99.90
18950;DHT22;9608;49.288;8.130;2024-03-23T09:43:17;11.50;99.90
18950;DHT22;9608;49.288;8.130;2024-03-23T09:45:45;11.50;99.90
18950;DHT22;9608;49.288;8.130;2024-03-23T09:48:12;11.50;99.90
18950;DHT22;9608;49.288;8.130;2024-03-23T09:50:41;11.70;99.90
18950;DHT22;9608;49.288;8.130;2024-03-23T09:53:08;11.80;99.90
18950;DHT22;9608;49.288;8.130;2024-03-23T09:55:37;11.90;99.90
18950;DHT22;9608;49.288;8.130;2024-03-23T09:58:03;11.80;99.90
18950;DHT22;9608;49.288;8.130;2024-03-23T10:00:30;11.90;99.90
18950;DHT22;9608;49.288;8.130;2024-03-23T10:02:57;11.90;99.90
18950;DHT22;9608;49.288;8.130;2024-03-23T10:05:27;11.80;99.90
18950;DHT22;9608;49.288;8.130;2024-03-23T10:07:55;11.60;99.90
18950;DHT22;9608;49.288;8.130;2024-03-23T10:10:21;11.50;99.90
18950;DHT22;9608;49.288;8.130;2024-03-23T10:12:48;11.50;99.90
18950;DHT22;9608;49.288;8.130;2024-03-23T10:15:19;11.80;99.90
18950;DHT22;9608;49.288;8.130;2024-03-23T10:17:45;12.20;99.90
18950;DHT22;9608;49.288;8.130;2024-03-23T10:20:11;12.60;99.90
18950;DHT22;9608;49.288;8.130;2024-03-23T10:22:38;12.80;99.90
18950;DHT22;9608;49.288;8.130;2024-03-23T10:25:10;12.80;99.90
18950;DHT22;9608;49.288;8.130;2024-03-23T10:27:36;12.70;99.90
18950;DHT22;9608;49.288;8.130;2024-03-23T10:30:10;12.20;99.90
18950;DHT22;9608;49.288;8.130;2024-03-23T10:32:37;11.80;99.90
18950;DHT22;9608;49.288;8.130;2024-03-23T10:35:17;11.70;99.90
18950;DHT22;9608;49.288;8.130;2024-03-23T10:37:44;11.60;99.90
18950;DHT22;9608;49.288;8.130;2024-03-23T10:40:14;11.60;99.90
18950;DHT22;9608;49.288;8.130;2024-03-23T10:42:40;11.70;99.90
18950;DHT22;9608;49.288;8.130;2024-03-23T10:45:08;11.50;99.90
18950;DHT22;9608;49.288;8.130;2024-03-23T10:47:35;11.50;99.90
18950;DHT22;9608;49.288;8.130;2024-03-23T10:50:02;11.30;99.90
18950;DHT22;9608;49.288;8.130;2024-03-23T10:52:28;11.40;99.90
18950;DHT22;9608;49.288;8.130;2024-03-23T10:54:56;11.40;99.90
18950;DHT22;9608;49.288;8.130;2024-03-23T10:57:29;11.60;99.90
18950;DHT22;9608;49.288;8.130;2024-03-23T10:59:57;11.70;99.90
18950;DHT22;9608;49.288;8.130;2024-03-23T11:02:23;11.70;99.90
18950;DHT22;9608;49.288;8.130;2024-03-23T11:04:52;11.80;99.90
18950;DHT22;9608;49.288;8.130;2024-03-23T11:07:31;11.90;99.90
18950;DHT22;9608;49.288;8.130;2024-03-23T11:09:59;11.90;99.90
18950;DHT22;9608;49.288;8.130;2024-03-23T11:12:30;12.20;99.90
18950;DHT22;9608;49.288;8.130;2024-03-23T11:15:01;12.30;99.90
18950;DHT22;9608;49.288;8.130;2024-03-23T11:17:27;12.60;99.90
18950;DHT22;9608;49.288;8.130;2024-03-23T11:19:56;12.20;99.90
18950;DHT22;9608;49.288;8.130;2024-03-23T11:22:42;12.20;99.90
18950;DHT22;9608;49.288;8.130;2024-03-23T11:25:16;12.10;99.90
18950;DHT22;9608;49.288;8.130;2024-03-23T11:27:44;12.00;99.90
18950;DHT22;9608;49.288;8.130;2024-03-23T11:30:16;12.10;99.90
18950;DHT22;9608;49.288;8.130;2024-03-23T11:32:43;12.30;99.90
18950;DHT22;9608;49.288;8.130;2024-03-23T11:35:10;12.30;99.90
18950;DHT22;9608;49.288;8.130;2024-03-23T11:37:37;12.50;99.90
18950;DHT22;9608;49.288;8.130;2024-03-23T11:40:20;12.80;99.90
18950;DHT22;9608;49.288;8.130;2024-03-23T11:42:47;13.10;99.90
18950;DHT22;9608;49.288;8.130;2024-03-23T11:45:21;13.20;99.90
18950;DHT22;9608;49.288;8.130;2024-03-23T11:47:47;13.40;99.90
18950;DHT22;9608;49.288;8.130;2024-03-23T11:50:19;13.70;99.90
18950;DHT22;9608;49.288;8.130;2024-03-23T11:52:45;13.60;99.90
18950;DHT22;9608;49.288;8.130;2024-03-23T11:55:12;13.70;99.90
18950;DHT22;9608;49.288;8.130;2024-03-23T11:57:37;12.80;99.90
18950;DHT22;9608;49.288;8.130;2024-03-23T12:00:24;11.90;99.90
18950;DHT22;9608;49.288;8.130;2024-03-23T12:02:50;11.10;99.90
18950;DHT22;9608;49.288;8.130;2024-03-23T12:05:17;10.80;99.90
18950;DHT22;9608;49.288;8.130;2024-03-23T12:07:43;10.70;99.90
18950;DHT22;9608;49.288;8.130;2024-03-23T12:10:09;10.70;99.90
18950;DHT22;9608;49.288;8.130;2024-03-23T12:12:35;10.70;99.90
18950;DHT22;9608;49.288;8.130;2024-03-23T12:15:03;10.40;99.90
18950;DHT22;9608;49.288;8.130;2024-03-23T12:17:32;10.40;99.90
18950;DHT22;9608;49.288;8.130;2024-03-23T12:20:00;10.10;99.90
18950;DHT22;9608;49.288;8.130;2024-03-23T12:22:26;10.30;99.90
18950;DHT22;9608;49.288;8.130;2024-03-23T12:24:54;10.40;99.90
18950;DHT22;9608;49.288;8.130;2024-03-23T12:27:20;10.60;99.90
18950;DHT22;9608;49.288;8.130;2024-03-23T12:29:47;10.80;99.90
18950;DHT22;9608;49.288;8.130;2024-03-23T12:32:13;10.90;99.90
18950;DHT22;9608;49.288;8.130;2024-03-23T12:34:41;11.00;99.90
18950;DHT22;9608;49.288;8.130;2024-03-23T12:37:07;10.80;99.90
18950;DHT22;9608;49.288;8.130;2024-03-23T12:39:35;10.00;99.90
18950;DHT22;9608;49.288;8.130;2024-03-23T12:42:01;9.70;99.90
18950;DHT22;9608;49.288;8.130;2024-03-23T12:44:28;8.90;99.90
18950;DHT22;9608;49.288;8.130;2024-03-23T12:46:54;8.40;99.90
18950;DHT22;9608;49.288;8.130;2024-03-23T12:49:20;8.30;99.90
18950;DHT22;9608;49.288;8.130;2024-03-23T12:51:53;8.10;99.90
18950;DHT22;9608;49.288;8.130;2024-03-23T12:54:20;8.00;99.90
18950;DHT22;9608;49.288;8.130;2024-03-23T12:56:46;7.90;99.90
18950;DHT22;9608;49.288;8.130;2024-03-23T12:59:13;8.00;99.90
18950;DHT22;9608;49.288;8.130;2024-03-23T13:01:39;8.00;99.90
18950;DHT22;9608;49.288;8.130;2024-03-23T13:04:05;8.20;99.90
18950;DHT22;9608;49.288;8.130;2024-03-23T13:06:31;8.20;99.90
18950;DHT22;9608;49.288;8.130;2024-03-23T13:09:00;8.10;99.90
18950;DHT22;9608;49.288;8.130;2024-03-23T13:11:26;8.30;99.90
18950;DHT22;9608;49.288;8.130;2024-03-23T13:13:53;8.30;99.90
18950;DHT22;9608;49.288;8.130;2024-03-23T13:16:19;8.30;99.90
18950;DHT22;9608;49.288;8.130;2024-03-23T13:18:46;8.40;99.90
18950;DHT22;9608;49.288;8.130;2024-03-23T13:21:12;8.40;99.90
18950;DHT22;9608;49.288;8.130;2024-03-23T13:23:38;8.40;99.90
18950;DHT22;9608;49.288;8.130;2024-03-23T13:26:08;8.40;99.90
18950;DHT22;9608;49.288;8.130;2024-03-23T13:28:35;8.60;99.90
18950;DHT22;9608;49.288;8.130;2024-03-23T13:31:01;8.60;99.90
18950;DHT22;9608;49.288;8.130;2024-03-23T13:33:29;8.70;99.90
18950;DHT22;9608;49.288;8.130;2024-03-23T13:35:55;8.80;99.90
18950;DHT22;9608;49.288;8.130;2024-03-23T13:38:22;8.90;99.90
18950;DHT22;9608;49.288;8.130;2024-03-23T13:40:52;9.00;99.90
18950;DHT22;9608;49.288;8.130;2024-03-23T13:43:20;9.00;99.90
18950;DHT22;9608;49.288;8.130;2024-03-23T13:45:47;8.90;99.90
18950;DHT22;9608;49.288;8.130;2024-03-23T13:48:15;9.20;99.90
18950;DHT22;9608;49.288;8.130;2024-03-23T13:50:40;9.40;99.90
18950;DHT22;9608;49.288;8.130;2024-03-23T13:53:07;9.50;99.90
18950;DHT22;9608;49.288;8.130;2024-03-23T13:55:34;9.50;99.90
18950;DHT22;9608;49.288;8.130;2024-03-23T13:58:01;9.40;99.90
18950;DHT22;9608;49.288;8.130;2024-03-23T14:00:28;9.60;99.90
18950;DHT22;9608;49.288;8.130;2024-03-23T14:02:54;9.70;99.90
18950;DHT22;9608;49.288;8.130;2024-03-23T14:05:20;9.70;99.90
18950;DHT22;9608;49.288;8.130;2024-03-23T14:07:47;9.80;99.90
18950;DHT22;9608;49.288;8.130;2024-03-23T14:10:13;9.80;99.90
18950;DHT22;9608;49.288;8.130;2024-03-23T14:12:39;9.90;99.90
18950;DHT22;9608;49.288;8.130;2024-03-23T14:15:06;9.90;99.90
18950;DHT22;9608;49.288;8.130;2024-03-23T14:17:34;9.80;99.90
18950;DHT22;9608;49.288;8.130;2024-03-23T14:20:00;9.80;99.90
18950;DHT22;9608;49.288;8.130;2024-03-23T14:22:27;9.70;99.90
18950;DHT22;9608;49.288;8.130;2024-03-23T14:24:53;9.50;99.90
18950;DHT22;9608;49.288;8.130;2024-03-23T14:27:20;9.50;99.90
18950;DHT22;9608;49.288;8.130;2024-03-23T14:29:47;9.50;99.90
18950;DHT22;9608;49.288;8.130;2024-03-23T14:32:13;9.50;99.90
18950;DHT22;9608;49.288;8.130;2024-03-23T14:34:41;9.40;99.90
18950;DHT22;9608;49.288;8.130;2024-03-23T14:37:08;9.60;99.90
18950;DHT22;9608;49.288;8.130;2024-03-23T14:39:34;9.60;99.90
18950;DHT22;9608;49.288;8.130;2024-03-23T14:42:01;9.70;99.90
18950;DHT22;9608;49.288;8.130;2024-03-23T14:44:27;9.70;99.90
18950;DHT22;9608;49.288;8.130;2024-03-23T14:46:53;9.80;99.90
18950;DHT22;9608;49.288;8.130;2024-03-23T14:49:20;10.00;99.90
18950;DHT22;9608;49.288;8.130;2024-03-23T14:51:47;10.00;99.90
18950;DHT22;9608;49.288;8.130;2024-03-23T14:54:14;10.10;99.90
18950;DHT22;9608;49.288;8.130;2024-03-23T14:56:40;10.20;99.90
18950;DHT22;9608;49.288;8.130;2024-03-23T14:59:07;10.20;99.90
18950;DHT22;9608;49.288;8.130;2024-03-23T15:01:33;10.30;99.90
18950;DHT22;9608;49.288;8.130;2024-03-23T15:04:00;10.40;99.90
18950;DHT22;9608;49.288;8.130;2024-03-23T15:06:26;10.50;99.90
18950;DHT22;9608;49.288;8.130;2024-03-23T15:08:54;10.70;99.90
18950;DHT22;9608;49.288;8.130;2024-03-23T15:11:20;10.60;99.90
18950;DHT22;9608;49.288;8.130;2024-03-23T15:13:49;10.50;99.90
18950;DHT22;9608;49.288;8.130;2024-03-23T15:16:17;10.40;99.90
18950;DHT22;9608;49.288;8.130;2024-03-23T15:18:45;10.40;99.90
18950;DHT22;9608;49.288;8.130;2024-03-23T15:21:11;10.40;99.90
18950;DHT22;9608;49.288;8.130;2024-03-23T15:23:39;10.20;99.90
18950;DHT22;9608;49.288;8.130;2024-03-23T15:26:09;8.90;99.90
18950;DHT22;9608;49.288;8.130;2024-03-23T15:28:36;7.20;99.90
18950;DHT22;9608;49.288;8.130;2024-03-23T15:31:07;6.30;99.90
18950;DHT22;9608;49.288;8.130;2024-03-23T15:33:35;5.60;99.90
18950;DHT22;9608;49.288;8.130;2024-03-23T15:36:01;5.10;99.90
18950;DHT22;9608;49.288;8.130;2024-03-23T15:38:28;4.80;99.90
18950;DHT22;9608;49.288;8.130;2024-03-23T15:40:54;4.80;99.90
18950;DHT22;9608;49.288;8.130;2024-03-23T15:43:23;4.90;99.90
18950;DHT22;9608;49.288;8.130;2024-03-23T15:45:54;5.00;99.90
18950;DHT22;9608;49.288;8.130;2024-03-23T15:48:20;5.00;99.90
18950;DHT22;9608;49.288;8.130;2024-03-23T15:50:50;5.00;99.90
18950;DHT22;9608;49.288;8.130;2024-03-23T15:53:18;5.00;99.90
18950;DHT22;9608;49.288;8.130;2024-03-23T15:55:43;5.00;99.90
18950;DHT22;9608;49.288;8.130;2024-03-23T15:58:10;5.10;99.90
18950;DHT22;9608;49.288;8.130;2024-03-23T16:00:37;5.20;99.90
18950;DHT22;9608;49.288;8.130;2024-03-23T16:03:04;5.10;99.90
18950;DHT22;9608;49.288;8.130;2024-03-23T16:05:30;5.10;99.90
18950;DHT22;9608;49.288;8.130;2024-03-23T16:07:56;5.20;99.90
18950;DHT22;9608;49.288;8.130;2024-03-23T16:10:22;5.30;99.90
18950;DHT22;9608;49.288;8.130;2024-03-23T16:12:49;5.50;99.90
18950;DHT22;9608;49.288;8.130;2024-03-23T16:15:15;5.60;99.90
18950;DHT22;9608;49.288;8.130;2024-03-23T16:17:43;5.70;99.90
18950;DHT22;9608;49.288;8.130;2024-03-23T16:20:09;5.80;99.90
18950;DHT22;9608;49.288;8.130;2024-03-23T16:22:36;5.90;99.90
18950;DHT22;9608;49.288;8.130;2024-03-23T16:25:02;6.00;99.90
18950;DHT22;9608;49.288;8.130;2024-03-23T16:27:29;6.10;99.90
18950;DHT22;9608;49.288;8.130;2024-03-23T16:29:54;6.20;99.90
18950;DHT22;9608;49.288;8.130;2024-03-23T16:32:21;6.10;99.90
18950;DHT22;9608;49.288;8.130;2024-03-23T16:34:50;5.80;99.90
18950;DHT22;9608;49.288;8.130;2024-03-23T16:37:16;5.70;99.90
18950;DHT22;9608;49.288;8.130;2024-03-23T16:39:42;5.50;99.90
18950;DHT22;9608;49.288;8.130;2024-03-23T16:42:09;5.20;99.90
18950;DHT22;9608;49.288;8.130;2024-03-23T16:44:35;5.00;99.90